Time;durP1;ratioP1;P1;durP2;ratioP2;P2;SDS_P1;SDS_P2;PMS_P1;PMS_P2;Temp;Humidity;BMP_temperature;BMP_pressure;BME280_temperature;BME280_humidity;BME280_pressure;Samples;Min_cycle;Max_cycle;Signal;HPM_P1;HPM_P2
2023/09/26 00:00:20;;;;;;;0.50;0.30;;;11.40;99.90;;;;;;5021614;28;20442;-78
2023/09/26 00:02:46;;;;;;;0.40;0.30;;;;;;;;;;4996710;28;20210;-80
2023/09/26 00:05:12;;;;;;;0.40;0.25;;;11.20;99.90;;;;;;5010800;28;20198;-82
2023/09/26 00:07:38;;;;;;;1.03;0.93;;;;;;;;;;4989056;28;20191;-81
2023/09/26 00:10:05;;;;;;;0.50;0.50;;;11.20;99.90;;;;;;4985743;28;21070;-83
2023/09/26 00:12:31;;;;;;;0.40;0.20;;;11.20;99.90;;;;;;4991233;28;20276;-80
2023/09/26 00:14:57;;;;;;;1.10;0.53;;;11.10;99.90;;;;;;4990491;28;20186;-78
2023/09/26 00:17:22;;;;;;;0.50;0.50;;;11.20;99.90;;;;;;5001419;28;20444;-78
2023/09/26 00:19:48;;;;;;;0.40;0.40;;;10.90;99.90;;;;;;4992720;28;20186;-82
2023/09/26 00:22:14;;;;;;;0.40;0.30;;;;;;;;;;4993975;28;20205;-77
2023/09/26 00:24:39;;;;;;;0.40;0.20;;;11.10;99.90;;;;;;5000913;28;20211;-76
2023/09/26 00:27:05;;;;;;;0.40;0.20;;;11.00;99.90;;;;;;4992420;28;20213;-81
2023/09/26 00:29:31;;;;;;;0.50;0.50;;;10.90;99.90;;;;;;5005079;28;20186;-81
2023/09/26 00:31:59;;;;;;;0.40;0.30;;;10.70;99.90;;;;;;5003750;28;20242;-80
2023/09/26 00:34:25;;;;;;;0.40;0.30;;;;;;;;;;5005107;28;20850;-79
2023/09/26 00:36:50;;;;;;;0.40;0.30;;;10.60;99.90;;;;;;5001124;28;20307;-81
2023/09/26 00:39:16;;;;;;;0.77;0.50;;;10.70;99.90;;;;;;4982704;28;20480;-79
2023/09/26 00:41:41;;;;;;;0.70;0.60;;;10.80;99.90;;;;;;5009258;28;20250;-75
2023/09/26 00:44:08;;;;;;;0.40;0.30;;;;;;;;;;5000838;28;20249;-83
2023/09/26 00:46:34;;;;;;;0.40;0.30;;;10.70;99.90;;;;;;4988884;28;20206;-84
2023/09/26 00:49:01;;;;;;;0.70;0.60;;;10.40;99.90;;;;;;5003539;28;20696;-80
2023/09/26 00:51:27;;;;;;;0.40;0.35;;;10.40;99.90;;;;;;4999215;28;20182;-78
2023/09/26 00:53:53;;;;;;;0.40;0.30;;;;;;;;;;4985353;28;20244;-79
2023/09/26 00:56:19;;;;;;;0.40;0.30;;;10.30;99.90;;;;;;4989547;28;20474;-81
2023/09/26 00:58:46;;;;;;;0.40;0.40;;;10.40;99.90;;;;;;5006832;28;20199;-79
2023/09/26 01:01:12;;;;;;;0.40;0.35;;;;;;;;;;4985094;28;20191;-84
2023/09/26 01:03:38;;;;;;;1.70;1.17;;;;;;;;;;5004187;28;20202;-81
2023/09/26 01:06:04;;;;;;;0.50;0.30;;;10.60;99.90;;;;;;4984241;28;20485;-80
2023/09/26 01:08:30;;;;;;;0.73;0.73;;;10.50;99.90;;;;;;5006779;28;20228;-76
2023/09/26 01:10:58;;;;;;;0.40;0.40;;;10.40;99.90;;;;;;5015433;28;20285;-80
2023/09/26 01:13:24;;;;;;;3.03;1.38;;;;;;;;;;5006045;28;20187;-83
2023/09/26 01:15:50;;;;;;;0.40;0.20;;;10.40;99.90;;;;;;4981946;28;21271;-80
2023/09/26 01:18:16;;;;;;;0.40;0.20;;;10.30;99.90;;;;;;5000944;28;21038;-80
2023/09/26 01:20:44;;;;;;;0.40;0.20;;;10.30;99.90;;;;;;4984584;28;21137;-77
2023/09/26 01:23:12;;;;;;;0.40;0.20;;;10.30;99.90;;;;;;4998802;28;20194;-81
2023/09/26 01:25:38;;;;;;;0.60;0.40;;;10.20;99.90;;;;;;5005011;28;20249;-79
2023/09/26 01:28:08;;;;;;;0.50;0.40;;;;;;;;;;5003814;28;20712;-82
2023/09/26 01:30:37;;;;;;;0.40;0.20;;;10.20;99.90;;;;;;5006557;28;20444;-81
2023/09/26 01:33:08;;;;;;;0.40;0.30;;;10.00;99.90;;;;;;4984229;28;20565;-82
2023/09/26 01:35:33;;;;;;;0.60;0.60;;;9.90;99.90;;;;;;4998264;28;20206;-78
2023/09/26 01:37:59;;;;;;;0.40;0.27;;;9.90;99.90;;;;;;5002797;28;20240;-83
2023/09/26 01:40:27;;;;;;;0.40;0.30;;;;;;;;;;4987447;28;20473;-82
2023/09/26 01:42:53;;;;;;;0.60;0.50;;;9.90;99.90;;;;;;4986651;28;20193;-85
2023/09/26 01:45:19;;;;;;;0.40;0.20;;;;;;;;;;5002544;28;20559;-79
2023/09/26 01:47:48;;;;;;;0.40;0.30;;;10.00;99.90;;;;;;4988499;28;20183;-81
2023/09/26 01:50:19;;;;;;;1.83;1.63;;;10.00;99.90;;;;;;5006632;28;20433;-77
2023/09/26 01:52:46;;;;;;;0.40;0.40;;;9.90;99.90;;;;;;4998022;28;20194;-83
2023/09/26 01:55:20;;;;;;;2.30;0.73;;;9.80;99.90;;;;;;5003040;28;20242;-80
2023/09/26 01:57:46;;;;;;;0.40;0.40;;;;;;;;;;4987106;28;20193;-80
2023/09/26 02:00:13;;;;;;;0.60;0.60;;;10.00;99.90;;;;;;4988630;28;20221;-83
2023/09/26 02:02:43;;;;;;;1.25;1.00;;;10.00;99.90;;;;;;5008492;28;20466;-83
2023/09/26 02:05:10;;;;;;;1.85;1.60;;;10.20;99.90;;;;;;5007948;28;20214;-83
2023/09/26 02:07:36;;;;;;;0.40;0.20;;;9.90;99.90;;;;;;5006593;28;20186;-83
2023/09/26 02:10:03;;;;;;;0.73;0.73;;;9.80;99.90;;;;;;4987832;28;20193;-83
2023/09/26 02:12:30;;;;;;;0.65;0.63;;;;;;;;;;5008324;28;21166;-78
2023/09/26 02:14:55;;;;;;;0.88;0.85;;;9.70;99.90;;;;;;5004734;28;20542;-79
2023/09/26 02:17:21;;;;;;;0.40;0.20;;;9.70;99.90;;;;;;4991115;28;20224;-82
2023/09/26 02:19:47;;;;;;;0.53;0.53;;;;;;;;;;4984137;28;20187;-79
2023/09/26 02:22:12;;;;;;;0.50;0.40;;;9.60;99.90;;;;;;4986666;28;20189;-83
2023/09/26 02:24:38;;;;;;;0.40;0.40;;;9.60;99.90;;;;;;5009043;28;20472;-81
2023/09/26 02:27:03;;;;;;;1.07;0.97;;;9.70;99.90;;;;;;5011284;28;20205;-79
2023/09/26 02:29:29;;;;;;;0.40;0.30;;;9.70;99.90;;;;;;5009403;28;20178;-76
2023/09/26 02:31:55;;;;;;;0.50;0.50;;;;;;;;;;5008949;28;20459;-80
2023/09/26 02:34:22;;;;;;;0.40;0.40;;;9.70;99.90;;;;;;5015117;28;20182;-80
2023/09/26 02:36:48;;;;;;;0.73;0.40;;;9.70;99.90;;;;;;5009373;28;20206;-78
2023/09/26 02:39:14;;;;;;;0.40;0.20;;;;;;;;;;4993251;28;20190;-80
2023/09/26 02:41:40;;;;;;;0.40;0.27;;;;;;;;;;4993907;28;20255;-78
2023/09/26 02:44:06;;;;;;;0.50;0.50;;;;;;;;;;4987888;28;20461;-82
2023/09/26 02:46:33;;;;;;;0.40;0.30;;;;;;;;;;4990196;28;21014;-81
2023/09/26 02:49:00;;;;;;;0.57;0.50;;;9.50;99.90;;;;;;5017596;28;20348;-77
2023/09/26 02:51:26;;;;;;;0.40;0.40;;;9.40;99.90;;;;;;5018184;28;20670;-81
2023/09/26 02:53:51;;;;;;;0.50;0.50;;;9.40;99.90;;;;;;5012821;28;20190;-80
2023/09/26 02:56:17;;;;;;;0.40;0.30;;;9.50;99.90;;;;;;5006669;28;20244;-78
2023/09/26 02:58:43;;;;;;;0.60;0.60;;;9.50;99.90;;;;;;5004645;28;20281;-76
2023/09/26 03:01:14;;;;;;;0.40;0.20;;;9.60;99.90;;;;;;5015611;28;20277;-80
2023/09/26 03:03:39;;;;;;;3.00;1.70;;;9.70;99.90;;;;;;4993690;28;20174;-83
2023/09/26 03:06:05;;;;;;;0.40;0.30;;;;;;;;;;5008896;28;20229;-82
2023/09/26 03:08:31;;;;;;;0.50;0.50;;;;;;;;;;4990269;28;20182;-76
2023/09/26 03:11:00;;;;;;;0.40;0.30;;;9.70;99.90;;;;;;4988935;28;20448;-79
2023/09/26 03:13:33;;;;;;;0.40;0.40;;;;;;;;;;4991797;28;20213;-78
2023/09/26 03:15:59;;;;;;;0.88;0.88;;;9.60;99.90;;;;;;5002494;28;20266;-84
2023/09/26 03:18:26;;;;;;;0.40;0.30;;;9.60;99.90;;;;;;5009743;28;20240;-78
2023/09/26 03:20:52;;;;;;;0.40;0.30;;;;;;;;;;4992141;28;20236;-80
2023/09/26 03:23:18;;;;;;;0.40;0.30;;;;;;;;;;4991481;28;20190;-84
2023/09/26 03:25:44;;;;;;;0.40;0.30;;;9.60;99.90;;;;;;4986481;28;20218;-80
2023/09/26 03:28:10;;;;;;;0.40;0.37;;;;;;;;;;4988279;28;20449;-78
2023/09/26 03:30:36;;;;;;;0.40;0.40;;;;;;;;;;4988583;28;20296;-80
2023/09/26 03:33:02;;;;;;;0.40;0.20;;;9.60;99.90;;;;;;4983232;28;20190;-82
2023/09/26 03:35:27;;;;;;;1.17;1.07;;;;;;;;;;5003654;28;20238;-79
2023/09/26 03:37:53;;;;;;;0.40;0.30;;;9.50;99.90;;;;;;5004781;28;20332;-82
2023/09/26 03:40:18;;;;;;;0.40;0.30;;;9.40;99.90;;;;;;5005507;28;20476;-80
2023/09/26 03:42:44;;;;;;;0.40;0.30;;;9.40;99.90;;;;;;4989950;28;20229;-79
2023/09/26 03:45:10;;;;;;;0.40;0.30;;;;;;;;;;4991740;28;20217;-80
2023/09/26 03:47:35;;;;;;;0.40;0.30;;;9.40;99.90;;;;;;5000624;28;20245;-79
2023/09/26 03:50:02;;;;;;;0.40;0.30;;;;;;;;;;4987361;28;20194;-79
2023/09/26 03:52:28;;;;;;;0.35;0.20;;;9.50;99.90;;;;;;4987790;28;20894;-81
2023/09/26 03:54:54;;;;;;;0.60;0.50;;;;;;;;;;5003616;28;20499;-80
2023/09/26 03:57:19;;;;;;;0.40;0.30;;;9.50;99.90;;;;;;4988934;28;20286;-84
2023/09/26 03:59:49;;;;;;;0.40;0.40;;;9.50;99.90;;;;;;5007291;28;20437;-81
2023/09/26 04:02:15;;;;;;;0.40;0.20;;;9.50;99.90;;;;;;5005323;28;21743;-81
2023/09/26 04:04:41;;;;;;;0.40;0.30;;;;;;;;;;5006017;28;20218;-79
2023/09/26 04:07:06;;;;;;;0.33;0.30;;;9.50;99.90;;;;;;4995657;28;20450;-76
2023/09/26 04:09:35;;;;;;;0.60;0.50;;;9.50;99.90;;;;;;4989727;28;20476;-79
2023/09/26 04:12:03;;;;;;;0.30;0.20;;;9.50;99.90;;;;;;5006911;28;20205;-76
2023/09/26 04:14:29;;;;;;;0.40;0.30;;;;;;;;;;4993799;28;20194;-80
2023/09/26 04:16:55;;;;;;;0.50;0.50;;;9.40;99.90;;;;;;4997149;28;20207;-83
2023/09/26 04:19:21;;;;;;;1.10;1.10;;;;;;;;;;5005080;28;20446;-83
2023/09/26 04:21:46;;;;;;;0.40;0.20;;;9.40;99.90;;;;;;4986324;28;20281;-84
2023/09/26 04:24:12;;;;;;;0.40;0.40;;;;;;;;;;5000598;28;21047;-81
2023/09/26 04:26:38;;;;;;;0.40;0.40;;;;;;;;;;4988042;28;20210;-84
2023/09/26 04:29:07;;;;;;;0.40;0.30;;;;;;;;;;4999501;28;20513;-83
2023/09/26 04:31:33;;;;;;;4.30;0.60;;;;;;;;;;4987091;28;20451;-78
2023/09/26 04:33:59;;;;;;;0.40;0.40;;;;;;;;;;5002706;28;20269;-83
2023/09/26 04:36:24;;;;;;;0.40;0.30;;;9.00;99.90;;;;;;4987154;28;20496;-83
2023/09/26 04:38:50;;;;;;;2.20;2.10;;;;;;;;;;5002097;28;20449;-77
2023/09/26 04:41:16;;;;;;;0.40;0.37;;;;;;;;;;5001077;28;20201;-80
2023/09/26 04:43:42;;;;;;;0.60;0.60;;;9.10;99.90;;;;;;4997449;28;20490;-83
2023/09/26 04:46:15;;;;;;;1.43;0.77;;;9.00;99.90;;;;;;4982326;28;20476;-78
2023/09/26 04:48:42;;;;;;;0.40;0.20;;;9.00;99.90;;;;;;4997650;28;20190;-85
2023/09/26 04:51:15;;;;;;;0.40;0.30;;;8.80;99.90;;;;;;4986282;28;20221;-80
2023/09/26 04:53:41;;;;;;;1.63;0.73;;;8.70;99.90;;;;;;5004260;28;20507;-83
2023/09/26 04:56:07;;;;;;;2.95;0.65;;;8.50;99.90;;;;;;4984179;28;20305;-82
2023/09/26 04:58:34;;;;;;;0.40;0.30;;;;;;;;;;4998165;28;20187;-80
2023/09/26 05:01:09;;;;;;;0.40;0.30;;;8.50;99.90;;;;;;4984683;28;20321;-87
2023/09/26 05:03:35;;;;;;;0.47;0.47;;;8.50;99.90;;;;;;4994973;28;20193;-77
2023/09/26 05:06:00;;;;;;;3.30;0.63;;;8.50;99.90;;;;;;4978722;28;20218;-84
2023/09/26 05:08:27;;;;;;;0.40;0.30;;;8.50;99.90;;;;;;5001088;28;20179;-80
2023/09/26 05:10:52;;;;;;;0.40;0.20;;;8.60;99.90;;;;;;4987138;28;20918;-82
2023/09/26 05:13:18;;;;;;;0.60;0.60;;;8.60;99.90;;;;;;5002816;28;20205;-83
2023/09/26 05:15:44;;;;;;;1.43;0.63;;;8.60;99.90;;;;;;5001384;28;20211;-80
2023/09/26 05:18:09;;;;;;;2.53;1.90;;;8.60;99.90;;;;;;5009458;28;20264;-83
2023/09/26 05:20:35;;;;;;;0.70;0.60;;;8.60;99.90;;;;;;4995544;28;20276;-80
2023/09/26 05:23:03;;;;;;;0.40;0.40;;;8.60;99.90;;;;;;5007480;28;20190;-82
2023/09/26 05:25:28;;;;;;;1.48;1.38;;;8.50;99.90;;;;;;4993533;28;20215;-83
2023/09/26 05:27:54;;;;;;;1.27;1.17;;;;;;;;;;5006245;28;20178;-83
2023/09/26 05:30:20;;;;;;;0.40;0.20;;;;;;;;;;4997378;28;20204;-79
2023/09/26 05:32:46;;;;;;;0.68;0.68;;;8.50;99.90;;;;;;4998930;28;20441;-83
2023/09/26 05:35:12;;;;;;;0.50;0.50;;;8.80;99.90;;;;;;5003010;28;20198;-81
2023/09/26 05:37:37;;;;;;;0.37;0.20;;;9.20;99.90;;;;;;4987051;28;20728;-81
2023/09/26 05:40:06;;;;;;;1.17;0.60;;;8.70;99.90;;;;;;5002739;28;20474;-79
2023/09/26 05:42:33;;;;;;;0.35;0.20;;;8.80;99.90;;;;;;4990534;28;20441;-77
2023/09/26 05:44:58;;;;;;;0.40;0.20;;;8.80;99.90;;;;;;5005161;28;20229;-83
2023/09/26 05:47:24;;;;;;;0.30;0.20;;;;;;;;;;5004496;28;20202;-83
2023/09/26 05:49:51;;;;;;;0.60;0.60;;;;;;;;;;5003225;28;20727;-82
2023/09/26 05:52:17;;;;;;;0.40;0.30;;;8.80;99.90;;;;;;5001711;28;20441;-82
2023/09/26 05:54:43;;;;;;;0.40;0.30;;;8.80;99.90;;;;;;5003234;28;20234;-80
2023/09/26 05:57:09;;;;;;;0.40;0.30;;;;;;;;;;4984142;28;20281;-82
2023/09/26 05:59:35;;;;;;;0.47;0.40;;;9.30;99.90;;;;;;4985046;28;20737;-83
2023/09/26 06:02:00;;;;;;;0.37;0.27;;;9.40;99.90;;;;;;5001844;28;21077;-80
2023/09/26 06:04:26;;;;;;;0.40;0.30;;;9.70;99.90;;;;;;4985955;28;20930;-80
2023/09/26 06:06:51;;;;;;;2.83;1.50;;;10.20;99.90;;;;;;4993014;28;20561;-79
2023/09/26 06:09:17;;;;;;;1.30;1.07;;;11.30;99.90;;;;;;4987689;28;20190;-81
2023/09/26 06:11:42;;;;;;;2.23;1.20;;;12.50;99.90;;;;;;4988487;28;20246;-83
2023/09/26 06:14:08;;;;;;;1.70;1.40;;;13.40;99.90;;;;;;5000318;28;20770;-82
2023/09/26 06:16:34;;;;;;;0.80;0.80;;;14.20;99.90;;;;;;5005181;28;20222;-78
2023/09/26 06:18:59;;;;;;;0.97;0.97;;;14.10;99.90;;;;;;5009354;28;21019;-81
2023/09/26 06:21:25;;;;;;;0.43;0.43;;;;;;;;;;4982778;28;20513;-83
2023/09/26 06:23:51;;;;;;;0.40;0.40;;;14.60;99.90;;;;;;5011650;28;20174;-77
2023/09/26 06:26:16;;;;;;;1.23;1.00;;;16.10;99.90;;;;;;4998019;28;20479;-76
2023/09/26 06:28:42;;;;;;;0.40;0.37;;;15.70;99.90;;;;;;5004379;28;20618;-82
2023/09/26 06:31:09;;;;;;;0.40;0.37;;;15.40;99.90;;;;;;5002265;28;20190;-84
2023/09/26 06:33:35;;;;;;;1.33;1.23;;;15.00;99.90;;;;;;4988376;28;20263;-81
2023/09/26 06:36:01;;;;;;;0.67;0.67;;;15.20;99.90;;;;;;5003609;28;20469;-81
2023/09/26 06:38:28;;;;;;;1.00;0.70;;;15.10;99.90;;;;;;5001880;28;20500;-83
2023/09/26 06:41:01;;;;;;;0.93;0.90;;;15.60;99.90;;;;;;5005938;28;20488;-83
2023/09/26 06:43:27;;;;;;;0.73;0.73;;;16.60;99.90;;;;;;5006453;28;20442;-80
2023/09/26 06:45:53;;;;;;;1.70;1.60;;;16.80;99.90;;;;;;5005552;28;20469;-82
2023/09/26 06:48:19;;;;;;;1.90;1.80;;;17.10;99.90;;;;;;5004002;28;20194;-83
2023/09/26 06:50:45;;;;;;;0.50;0.40;;;;;;;;;;5005955;28;20186;-80
2023/09/26 06:53:10;;;;;;;1.43;1.33;;;16.60;99.90;;;;;;5002467;28;20528;-79
2023/09/26 06:55:39;;;;;;;0.93;0.93;;;17.20;99.90;;;;;;5005195;28;20472;-82
2023/09/26 06:58:05;;;;;;;1.90;1.07;;;18.10;99.90;;;;;;4988374;28;20191;-82
2023/09/26 07:00:31;;;;;;;0.90;0.50;;;19.60;99.90;;;;;;4990041;28;20472;-83
2023/09/26 07:02:57;;;;;;;2.10;1.07;;;20.50;99.90;;;;;;4999693;28;20499;-83
2023/09/26 07:05:26;;;;;;;0.67;0.67;;;21.60;99.90;;;;;;4998489;28;20520;-79
2023/09/26 07:07:51;;;;;;;0.70;0.70;;;21.50;99.90;;;;;;5004396;28;20842;-83
2023/09/26 07:10:17;;;;;;;0.40;0.30;;;21.30;99.90;;;;;;5008006;28;20441;-82
2023/09/26 07:12:44;;;;;;;2.23;1.73;;;;;;;;;;4989493;28;20289;-81
2023/09/26 07:15:13;;;;;;;1.67;1.57;;;22.00;99.90;;;;;;4986799;28;20195;-81
2023/09/26 07:17:39;;;;;;;0.97;0.70;;;22.00;99.90;;;;;;4987706;28;20453;-78
2023/09/26 07:20:07;;;;;;;0.70;0.70;;;22.40;99.90;;;;;;4995551;28;20457;-81
2023/09/26 07:22:33;;;;;;;1.73;0.70;;;22.60;99.90;;;;;;4980086;28;20213;-84
2023/09/26 07:25:00;;;;;;;1.30;1.20;;;23.50;99.90;;;;;;5004582;28;20547;-83
2023/09/26 07:27:25;;;;;;;0.60;0.60;;;23.90;99.90;;;;;;5001937;28;20457;-78
2023/09/26 07:29:52;;;;;;;0.90;0.80;;;25.50;99.90;;;;;;4984083;28;20452;-81
2023/09/26 07:32:18;;;;;;;0.73;0.53;;;25.60;98.00;;;;;;5006540;28;20183;-75
2023/09/26 07:34:44;;;;;;;2.23;2.03;;;;;;;;;;5010546;28;20454;-83
2023/09/26 07:37:11;;;;;;;1.30;1.30;;;25.00;98.60;;;;;;4988518;28;20468;-86
2023/09/26 07:39:37;;;;;;;0.70;0.70;;;25.70;97.30;;;;;;5002712;28;20517;-80
2023/09/26 07:42:03;;;;;;;1.83;1.70;;;26.10;97.50;;;;;;4978792;28;20450;-78
2023/09/26 07:44:30;;;;;;;0.90;0.53;;;26.40;95.10;;;;;;4986922;28;20201;-83
2023/09/26 07:46:55;;;;;;;1.30;1.20;;;26.40;93.80;;;;;;4999815;28;20455;-81
2023/09/26 07:49:21;;;;;;;1.10;1.00;;;27.40;93.40;;;;;;4986522;28;20459;-82
2023/09/26 07:51:48;;;;;;;1.53;1.00;;;27.20;91.20;;;;;;5001687;28;20197;-83
2023/09/26 07:54:14;;;;;;;1.17;1.17;;;27.20;92.10;;;;;;5001339;28;20225;-81
2023/09/26 07:56:39;;;;;;;1.17;1.07;;;27.30;92.50;;;;;;4988420;28;20578;-82
2023/09/26 07:59:05;;;;;;;1.60;1.50;;;27.90;91.80;;;;;;4984967;28;20197;-84
2023/09/26 08:01:31;;;;;;;1.70;1.60;;;28.20;91.30;;;;;;4985686;28;21222;-80
2023/09/26 08:03:56;;;;;;;2.10;1.33;;;27.50;90.10;;;;;;4985905;28;20222;-82
2023/09/26 08:06:22;;;;;;;0.97;0.63;;;26.70;90.90;;;;;;4985370;28;20476;-83
2023/09/26 08:08:48;;;;;;;0.73;0.73;;;26.80;92.40;;;;;;4999403;28;20185;-77
2023/09/26 08:11:14;;;;;;;1.47;1.10;;;;;;;;;;4992444;28;20227;-83
2023/09/26 08:13:40;;;;;;;1.90;0.87;;;26.60;93.10;;;;;;4997661;28;20810;-81
2023/09/26 08:16:05;;;;;;;0.53;0.53;;;26.70;91.30;;;;;;5004138;28;20468;-80
2023/09/26 08:18:31;;;;;;;1.10;0.83;;;;;;;;;;5000892;28;20245;-80
2023/09/26 08:20:58;;;;;;;0.73;0.73;;;27.10;90.70;;;;;;5000339;28;20250;-84
2023/09/26 08:23:30;;;;;;;0.77;0.77;;;27.80;91.00;;;;;;4986926;28;20447;-80
2023/09/26 08:26:01;;;;;;;1.67;1.57;;;27.90;90.10;;;;;;4986231;28;21057;-82
2023/09/26 08:28:28;;;;;;;0.80;0.80;;;27.50;90.70;;;;;;5007521;28;20763;-78
2023/09/26 08:30:56;;;;;;;0.70;0.70;;;26.90;91.50;;;;;;5007149;28;20441;-84
2023/09/26 08:33:23;;;;;;;1.87;1.07;;;26.10;94.20;;;;;;4986561;28;20857;-80
2023/09/26 08:35:51;;;;;;;1.70;1.47;;;26.40;94.40;;;;;;5002726;28;21040;-83
2023/09/26 08:38:17;;;;;;;1.73;1.63;;;28.10;91.50;;;;;;5002218;28;20436;-81
2023/09/26 08:40:43;;;;;;;1.43;1.30;;;29.40;91.10;;;;;;4982683;28;20549;-86
2023/09/26 08:43:12;;;;;;;2.60;1.47;;;30.60;83.00;;;;;;5016372;28;20208;-77
2023/09/26 08:45:40;;;;;;;1.50;0.83;;;30.60;83.90;;;;;;5017053;28;20480;-79
2023/09/26 08:48:06;;;;;;;1.43;1.00;;;30.40;82.00;;;;;;4988038;28;20471;-83
2023/09/26 08:50:31;;;;;;;1.90;1.70;;;30.50;81.50;;;;;;4978930;28;20508;-81
2023/09/26 08:52:59;;;;;;;1.30;1.20;;;31.90;80.20;;;;;;4983920;28;20248;-80
2023/09/26 08:55:26;;;;;;;3.73;2.70;;;31.50;72.20;;;;;;4984579;28;20501;-83
2023/09/26 08:57:53;;;;;;;2.67;2.47;;;31.40;72.80;;;;;;5000030;28;20450;-79
2023/09/26 09:00:20;;;;;;;2.40;2.23;;;29.60;76.50;;;;;;4998768;28;20517;-81
2023/09/26 09:02:46;;;;;;;1.60;1.50;;;28.60;80.80;;;;;;4980348;28;20478;-85
2023/09/26 09:05:13;;;;;;;1.27;1.20;;;;;;;;;;4998140;28;21244;-77
2023/09/26 09:07:40;;;;;;;0.80;0.80;;;26.30;88.30;;;;;;4979343;28;20430;-83
2023/09/26 09:10:08;;;;;;;1.90;1.80;;;27.10;90.50;;;;;;4978200;28;20508;-84
2023/09/26 09:12:37;;;;;;;1.63;1.33;;;28.30;87.60;;;;;;4999239;28;20532;-81
2023/09/26 09:15:15;;;;;;;1.30;1.20;;;27.90;88.40;;;;;;5000677;28;20464;-85
2023/09/26 09:17:45;;;;;;;1.53;1.43;;;28.00;88.60;;;;;;4982876;28;20468;-83
2023/09/26 09:20:16;;;;;;;2.60;1.40;;;28.30;89.30;;;;;;4983428;28;20460;-86
2023/09/26 09:22:48;;;;;;;1.00;0.90;;;28.10;89.10;;;;;;4992932;28;20440;-84
2023/09/26 09:25:15;;;;;;;0.70;0.70;;;28.40;86.80;;;;;;4972691;28;20468;-80
2023/09/26 09:27:43;;;;;;;2.20;1.80;;;28.30;86.90;;;;;;4988973;28;21041;-82
2023/09/26 09:30:13;;;;;;;0.90;0.90;;;28.30;83.50;;;;;;5002282;28;20449;-82
2023/09/26 09:32:45;;;;;;;1.37;1.27;;;28.40;84.80;;;;;;4989288;28;20439;-81
2023/09/26 09:35:14;;;;;;;0.80;0.80;;;28.20;87.30;;;;;;5006138;28;20543;-81
2023/09/26 09:37:45;;;;;;;0.93;0.93;;;28.20;87.90;;;;;;5002446;28;20444;-80
2023/09/26 09:40:15;;;;;;;1.40;1.30;;;29.10;86.20;;;;;;4978614;28;20532;-83
2023/09/26 09:42:41;;;;;;;1.37;1.37;;;30.10;81.60;;;;;;4998822;28;20445;-81
2023/09/26 09:45:09;;;;;;;1.13;1.03;;;27.80;78.50;;;;;;4999052;28;20475;-82
2023/09/26 09:47:37;;;;;;;1.30;1.20;;;28.70;80.80;;;;;;4997408;28;20221;-82
2023/09/26 09:50:05;;;;;;;1.17;1.07;;;28.00;83.20;;;;;;5003393;28;20804;-75
2023/09/26 09:52:34;;;;;;;1.07;1.03;;;27.80;87.20;;;;;;5015530;28;20457;-82
2023/09/26 09:55:08;;;;;;;0.90;0.90;;;27.90;86.70;;;;;;4987284;28;20451;-80
2023/09/26 09:57:37;;;;;;;0.60;0.50;;;27.10;88.70;;;;;;4988260;28;20458;-81
2023/09/26 10:00:05;;;;;;;0.87;0.83;;;25.00;93.10;;;;;;4998427;28;20449;-80
2023/09/26 10:02:31;;;;;;;0.60;0.50;;;24.30;94.00;;;;;;4981401;28;20475;-78
2023/09/26 10:05:00;;;;;;;0.87;0.87;;;23.30;99.50;;;;;;4999789;28;20505;-84
2023/09/26 10:07:27;;;;;;;1.33;1.13;;;23.30;99.90;;;;;;4986358;28;20498;-79
2023/09/26 10:09:54;;;;;;;0.90;0.77;;;23.30;99.90;;;;;;4990631;28;20441;-84
2023/09/26 10:12:20;;;;;;;0.90;0.90;;;23.30;99.90;;;;;;4977691;28;20514;-79
2023/09/26 10:14:46;;;;;;;0.50;0.40;;;;;;;;;;4992942;28;20448;-78
2023/09/26 10:17:14;;;;;;;0.50;0.50;;;22.60;99.90;;;;;;4983225;28;20469;-79
2023/09/26 10:19:40;;;;;;;0.77;0.50;;;22.60;99.90;;;;;;4988717;28;20449;-78
2023/09/26 10:22:19;;;;;;;0.63;0.63;;;22.50;99.90;;;;;;4980379;28;20456;-80
2023/09/26 10:24:46;;;;;;;2.17;0.80;;;22.50;99.90;;;;;;4986115;28;20234;-85
2023/09/26 10:27:12;;;;;;;1.13;0.60;;;22.50;99.90;;;;;;4987245;28;20457;-78
2023/09/26 10:29:38;;;;;;;0.60;0.43;;;22.40;99.90;;;;;;4987246;28;20532;-78
2023/09/26 10:32:07;;;;;;;1.10;0.80;;;22.10;99.90;;;;;;4989419;28;20187;-83
2023/09/26 10:34:34;;;;;;;0.70;0.70;;;22.10;99.90;;;;;;5002053;28;20433;-82
2023/09/26 10:37:00;;;;;;;0.97;0.93;;;;;;;;;;4999716;28;20469;-79
2023/09/26 10:39:38;;;;;;;1.00;0.63;;;22.20;99.90;;;;;;5003356;28;21370;-82
2023/09/26 10:42:14;;;;;;;1.37;1.00;;;22.20;99.90;;;;;;5002639;28;20438;-82
2023/09/26 10:44:46;;;;;;;2.17;0.90;;;22.70;99.90;;;;;;4999899;28;20453;-84
2023/09/26 10:47:16;;;;;;;0.60;0.50;;;22.40;99.90;;;;;;5001688;28;20457;-82
2023/09/26 10:49:43;;;;;;;1.37;1.27;;;22.50;99.90;;;;;;4997593;28;21107;-85
2023/09/26 10:52:10;;;;;;;1.50;0.90;;;22.60;99.90;;;;;;4987333;28;20448;-80
2023/09/26 10:54:37;;;;;;;1.67;1.20;;;22.60;99.90;;;;;;5006022;28;20444;-79
2023/09/26 10:57:03;;;;;;;1.80;0.47;;;25.20;99.90;;;;;;5009471;28;21010;-79
2023/09/26 10:59:30;;;;;;;0.50;0.43;;;22.70;99.90;;;;;;5002248;28;20501;-77
2023/09/26 11:01:57;;;;;;;1.90;1.80;;;22.70;99.90;;;;;;5014816;28;20456;-76
2023/09/26 11:04:31;;;;;;;1.00;0.80;;;22.70;99.90;;;;;;5017739;28;20527;-77
2023/09/26 11:07:02;;;;;;;1.47;1.37;;;22.70;99.90;;;;;;5008841;28;20974;-83
2023/09/26 11:09:29;;;;;;;1.13;0.70;;;22.80;99.90;;;;;;4993210;28;20446;-78
2023/09/26 11:11:56;;;;;;;0.60;0.50;;;22.80;99.90;;;;;;5008607;28;20437;-80
2023/09/26 11:14:26;;;;;;;0.83;0.57;;;24.70;99.90;;;;;;4987446;28;20433;-80
2023/09/26 11:16:52;;;;;;;0.50;0.50;;;22.90;99.90;;;;;;5005865;28;20461;-81
2023/09/26 11:19:18;;;;;;;1.00;0.97;;;;;;;;;;4986694;28;20996;-82
2023/09/26 11:21:47;;;;;;;0.50;0.40;;;23.00;99.90;;;;;;5005848;28;20623;-77
2023/09/26 11:24:29;;;;;;;1.80;0.63;;;22.90;99.90;;;;;;4988405;28;20870;-84
2023/09/26 11:27:08;;;;;;;0.50;0.40;;;23.20;99.90;;;;;;5004822;28;20469;-86
2023/09/26 11:29:35;;;;;;;0.60;0.60;;;23.30;99.90;;;;;;4983909;28;20445;-78
2023/09/26 11:32:02;;;;;;;0.90;0.60;;;23.20;99.90;;;;;;5001012;28;20455;-81
2023/09/26 11:34:28;;;;;;;1.07;0.97;;;23.50;99.90;;;;;;5005067;28;20545;-78
2023/09/26 11:36:54;;;;;;;2.30;0.77;;;;;;;;;;5001317;28;20500;-83
2023/09/26 11:39:21;;;;;;;0.50;0.40;;;23.10;99.90;;;;;;5003156;28;20675;-84
2023/09/26 11:42:00;;;;;;;0.40;0.20;;;23.10;99.90;;;;;;5005522;28;20457;-80
2023/09/26 11:44:26;;;;;;;0.50;0.40;;;;;;;;;;5000628;28;20544;-81
2023/09/26 11:46:52;;;;;;;0.50;0.40;;;23.30;99.90;;;;;;4984353;28;20526;-78
2023/09/26 11:49:19;;;;;;;0.70;0.50;;;;;;;;;;5002534;28;20473;-79
2023/09/26 11:51:47;;;;;;;0.40;0.30;;;23.50;99.90;;;;;;4986862;28;20905;-80
2023/09/26 11:54:14;;;;;;;1.13;0.70;;;;;;;;;;5004102;28;20448;-83
2023/09/26 11:56:46;;;;;;;0.50;0.43;;;23.60;99.90;;;;;;4983043;28;20465;-78
2023/09/26 11:59:12;;;;;;;1.17;1.17;;;23.70;99.90;;;;;;4990849;28;20604;-84
2023/09/26 12:01:41;;;;;;;0.60;0.50;;;24.80;99.90;;;;;;5004199;28;20550;-85
2023/09/26 12:04:10;;;;;;;1.23;0.63;;;25.10;99.90;;;;;;5001004;28;20476;-76
2023/09/26 12:06:36;;;;;;;0.60;0.60;;;;;;;;;;5011652;28;20493;-83
2023/09/26 12:09:05;;;;;;;0.50;0.40;;;;;;;;;;4987067;28;20956;-79
2023/09/26 12:11:30;;;;;;;0.50;0.40;;;24.20;98.80;;;;;;5002790;28;20477;-82
2023/09/26 12:13:56;;;;;;;0.50;0.50;;;24.20;99.50;;;;;;5001328;28;20538;-80
2023/09/26 12:16:27;;;;;;;0.83;0.60;;;24.30;98.60;;;;;;4991385;28;20204;-77
2023/09/26 12:18:52;;;;;;;0.50;0.40;;;24.20;98.60;;;;;;4991316;28;20442;-84
2023/09/26 12:21:18;;;;;;;0.80;0.80;;;;;;;;;;4998101;28;20778;-84
2023/09/26 12:23:44;;;;;;;0.90;0.50;;;24.10;98.50;;;;;;5002511;28;20183;-80
2023/09/26 12:26:09;;;;;;;0.90;0.70;;;24.10;98.00;;;;;;4982469;28;20469;-81
2023/09/26 12:28:35;;;;;;;0.93;0.60;;;24.00;98.20;;;;;;4980196;28;20243;-81
2023/09/26 12:31:01;;;;;;;0.90;0.73;;;23.90;98.70;;;;;;5009610;28;20186;-83
2023/09/26 12:33:26;;;;;;;0.40;0.30;;;23.90;99.20;;;;;;4984517;28;20597;-84
2023/09/26 12:35:52;;;;;;;0.60;0.60;;;24.00;98.70;;;;;;5005076;28;20210;-80
2023/09/26 12:38:19;;;;;;;1.17;0.70;;;24.00;98.50;;;;;;5004823;28;20192;-80
2023/09/26 12:40:44;;;;;;;0.50;0.40;;;24.00;98.80;;;;;;5000046;28;20288;-79
2023/09/26 12:43:10;;;;;;;0.50;0.50;;;24.10;99.00;;;;;;4994348;28;20462;-80
2023/09/26 12:45:36;;;;;;;1.00;0.80;;;24.70;99.60;;;;;;4999327;28;20236;-84
2023/09/26 12:48:02;;;;;;;0.57;0.50;;;;;;;;;;4984905;28;20215;-79
2023/09/26 12:50:28;;;;;;;0.40;0.30;;;24.50;97.50;;;;;;4986650;28;20202;-83
2023/09/26 12:52:55;;;;;;;0.93;0.53;;;24.50;97.90;;;;;;4983987;28;20507;-80
2023/09/26 12:55:21;;;;;;;0.60;0.60;;;24.60;95.60;;;;;;4997022;28;20484;-81
2023/09/26 12:57:47;;;;;;;0.93;0.83;;;;;;;;;;5001101;28;20470;-78
2023/09/26 13:00:14;;;;;;;0.60;0.50;;;24.60;95.10;;;;;;4981683;28;20189;-81
2023/09/26 13:02:40;;;;;;;0.50;0.50;;;24.70;95.00;;;;;;5002842;28;20970;-83
2023/09/26 13:05:06;;;;;;;1.17;0.60;;;24.70;94.70;;;;;;5002060;28;20468;-81
2023/09/26 13:07:32;;;;;;;0.50;0.43;;;24.60;96.00;;;;;;4987124;28;20474;-80